Amherst, Colorado
Current Conditions -  °F | °C
As of 1:35 AM on Wednesday 26 Nov 2014 (Local Time) from KHEQ Reporting Station
Clear Clear  
Wind Chill: 26°   Ceiling: Unl
Heat Index: 34°   Visibility: 10mi
Dew Point: 28°   Wind: 10mph
Humidity: 81%   Direction: 300°WNW
Pressure: 30.09"   Gusts: NA
Location:  40.68°N, 102.17°W
Report Text: KHEQ 260835Z AUTO 30009KT 10SM CLR 01/M02 A3009 RMK AO2
Loading
Personal Weather Stations






























Interactive Weather Map New forecast layout! Learn more

10-Day Weather Forecast

Advertisements
Track Severe Weather on mobile